createdAt,value
2022-09-26T00:02:02.709Z,93.90
2022-09-26T00:04:10.086Z,94.30
2022-09-26T00:06:17.943Z,94.40
2022-09-26T00:08:22.233Z,94.20
2022-09-26T00:10:26.400Z,94.30
2022-09-26T00:12:30.460Z,94.40
2022-09-26T00:14:34.739Z,94.10
2022-09-26T00:16:39.936Z,94.40
2022-09-26T00:18:48.778Z,94.30
2022-09-26T00:20:53.709Z,94.50
2022-09-26T00:22:59.242Z,94.60
2022-09-26T00:25:03.323Z,94.80
2022-09-26T00:27:07.555Z,94.60
2022-09-26T00:29:13.899Z,95.10
2022-09-26T00:31:22.062Z,94.70
2022-09-26T00:33:26.387Z,95.10
2022-09-26T00:35:31.527Z,95.10
2022-09-26T00:37:35.644Z,95.00
2022-09-26T00:39:41.593Z,94.70
2022-09-26T00:41:46.647Z,94.90
2022-09-26T00:43:52.290Z,94.90
2022-09-26T00:45:58.915Z,94.90
2022-09-26T00:48:06.808Z,95.00
2022-09-26T00:50:21.780Z,95.00
2022-09-26T00:52:30.812Z,95.30
2022-09-26T00:54:37.498Z,95.10
2022-09-26T00:56:46.002Z,94.90
2022-09-26T00:58:54.927Z,95.00
2022-09-26T01:01:00.900Z,94.70
2022-09-26T01:03:05.477Z,94.90
2022-09-26T01:05:11.685Z,94.90
2022-09-26T01:07:20.354Z,94.60
2022-09-26T01:09:24.547Z,95.00
2022-09-26T01:11:30.172Z,95.20
2022-09-26T01:13:37.946Z,95.30
2022-09-26T01:15:42.150Z,95.30
2022-09-26T01:17:47.865Z,95.20
2022-09-26T01:20:15.524Z,95.20
2022-09-26T01:22:49.695Z,95.30
2022-09-26T01:25:08.888Z,94.90
2022-09-26T01:27:38.386Z,95.20
2022-09-26T01:30:04.934Z,95.20
2022-09-26T01:32:55.513Z,95.20
2022-09-26T01:35:10.516Z,95.30
2022-09-26T01:37:23.844Z,95.80
2022-09-26T01:39:42.693Z,95.70
2022-09-26T01:41:57.719Z,95.60
2022-09-26T01:44:15.796Z,95.60
2022-09-26T01:46:29.804Z,95.50
2022-09-26T01:48:39.255Z,95.70
2022-09-26T01:50:47.370Z,95.60
2022-09-26T01:52:58.822Z,95.10
2022-09-26T01:55:06.342Z,94.70
2022-09-26T01:57:17.994Z,94.40
2022-09-26T01:59:26.333Z,94.40
2022-09-26T02:01:37.574Z,94.50
2022-09-26T02:03:50.189Z,94.80
2022-09-26T02:05:57.752Z,95.50
2022-09-26T02:08:08.012Z,95.50
2022-09-26T02:10:18.318Z,95.90
2022-09-26T02:12:31.355Z,96.20
2022-09-26T02:14:38.748Z,96.20
2022-09-26T02:16:49.083Z,95.70
2022-09-26T02:18:58.168Z,95.80
2022-09-26T02:21:07.951Z,95.70
2022-09-26T02:23:13.061Z,95.60
2022-09-26T02:25:18.236Z,95.70
2022-09-26T02:27:22.915Z,95.80
2022-09-26T02:29:28.293Z,96.20
2022-09-26T02:31:36.667Z,95.30
2022-09-26T02:33:43.113Z,94.60
2022-09-26T02:35:57.796Z,93.60
2022-09-26T02:38:07.334Z,92.90
2022-09-26T02:40:20.420Z,92.90
2022-09-26T02:42:31.558Z,92.60
2022-09-26T02:44:50.155Z,92.00
2022-09-26T02:47:23.037Z,92.50
2022-09-26T02:49:45.476Z,92.40
2022-09-26T02:52:09.059Z,91.70
2022-09-26T02:54:23.025Z,91.60
2022-09-26T02:56:36.160Z,91.60
2022-09-26T02:58:49.011Z,91.20
2022-09-26T03:01:01.993Z,91.50
2022-09-26T03:03:14.110Z,91.30
2022-09-26T03:05:22.502Z,91.30
2022-09-26T03:07:37.219Z,91.50
2022-09-26T03:09:44.166Z,90.50
2022-09-26T03:11:51.007Z,90.40
2022-09-26T03:13:57.864Z,90.20
2022-09-26T03:16:04.002Z,89.70
2022-09-26T03:18:12.187Z,90.60
2022-09-26T03:20:20.397Z,90.20
2022-09-26T03:22:26.310Z,90.30
2022-09-26T03:24:30.989Z,90.30
2022-09-26T03:26:37.405Z,90.20
2022-09-26T03:28:42.614Z,90.80
2022-09-26T03:30:47.680Z,91.50
2022-09-26T03:33:15.286Z,91.60
2022-09-26T03:35:21.104Z,91.30
2022-09-26T03:37:25.674Z,91.50
2022-09-26T03:39:30.001Z,91.60
2022-09-26T03:41:38.524Z,91.60
2022-09-26T03:44:04.538Z,91.70
2022-09-26T03:46:28.630Z,91.40
2022-09-26T03:48:33.138Z,91.80
2022-09-26T03:50:40.537Z,91.80
2022-09-26T03:52:44.668Z,92.00
2022-09-26T03:54:49.294Z,91.60
2022-09-26T03:56:55.560Z,91.30
2022-09-26T03:58:59.838Z,91.50
2022-09-26T04:01:06.551Z,94.00
2022-09-26T04:03:11.238Z,94.80
2022-09-26T04:05:17.881Z,94.20
2022-09-26T04:07:24.160Z,92.90
2022-09-26T04:09:28.779Z,92.00
2022-09-26T04:11:33.551Z,91.10
2022-09-26T04:13:54.524Z,90.40
2022-09-26T04:16:05.997Z,89.40
2022-09-26T04:18:10.517Z,87.60
2022-09-26T04:20:14.989Z,86.50
2022-09-26T04:22:24.870Z,85.50
2022-09-26T04:24:29.764Z,84.80
2022-09-26T04:26:34.474Z,84.10
2022-09-26T04:28:42.520Z,83.90
2022-09-26T04:30:47.480Z,83.40
2022-09-26T04:32:52.067Z,83.00
2022-09-26T04:35:15.221Z,82.80
2022-09-26T04:37:21.242Z,82.40
2022-09-26T04:39:27.867Z,82.10
2022-09-26T04:41:33.247Z,81.70
2022-09-26T04:43:38.830Z,81.20
2022-09-26T04:45:44.942Z,80.70
2022-09-26T04:47:50.857Z,79.80
2022-09-26T04:50:01.396Z,78.60
2022-09-26T04:52:07.657Z,77.70
2022-09-26T04:54:11.994Z,77.50
2022-09-26T04:56:24.991Z,77.70
2022-09-26T04:58:29.544Z,78.00
2022-09-26T05:00:36.724Z,78.20
2022-09-26T05:02:43.917Z,79.00
2022-09-26T05:04:48.573Z,80.10
2022-09-26T05:06:58.006Z,80.10
2022-09-26T05:09:06.948Z,79.90
2022-09-26T05:11:23.004Z,79.80
2022-09-26T05:13:28.195Z,79.50
2022-09-26T05:15:33.398Z,78.10
2022-09-26T05:17:37.846Z,77.80
2022-09-26T05:19:44.934Z,76.90
2022-09-26T05:22:19.557Z,76.20
2022-09-26T05:24:42.286Z,78.40
2022-09-26T05:26:50.310Z,79.10
2022-09-26T05:28:56.920Z,79.10
2022-09-26T05:31:07.796Z,80.20
2022-09-26T05:33:13.177Z,81.90
2022-09-26T05:35:17.505Z,81.70
2022-09-26T05:37:22.798Z,80.90
2022-09-26T05:39:45.190Z,80.10
2022-09-26T05:41:54.522Z,79.10
2022-09-26T05:43:58.933Z,78.20
2022-09-26T05:46:06.447Z,77.10
2022-09-26T05:48:16.476Z,76.50
2022-09-26T05:50:22.561Z,75.80
2022-09-26T05:52:29.902Z,75.30
2022-09-26T05:54:34.702Z,74.20
2022-09-26T05:56:46.178Z,74.50
2022-09-26T05:59:24.153Z,74.60
2022-09-26T06:01:58.758Z,72.60
2022-09-26T06:04:30.089Z,73.40
2022-09-26T06:06:50.936Z,71.30
2022-09-26T06:08:55.107Z,70.50
2022-09-26T06:11:31.136Z,68.80
2022-09-26T06:13:36.759Z,68.90
2022-09-26T06:15:43.271Z,68.30
2022-09-26T06:17:48.273Z,69.80
2022-09-26T06:19:52.553Z,68.10
2022-09-26T06:21:57.738Z,69.10
2022-09-26T06:24:02.525Z,69.60
2022-09-26T06:26:11.070Z,70.50
2022-09-26T06:28:15.661Z,70.20
2022-09-26T06:30:20.185Z,69.80
2022-09-26T06:32:27.759Z,70.20
2022-09-26T06:34:54.461Z,68.30
2022-09-26T06:37:19.368Z,70.00
2022-09-26T06:39:23.547Z,70.50
2022-09-26T06:41:27.765Z,70.30
2022-09-26T06:43:33.934Z,69.20
2022-09-26T06:45:49.016Z,70.10
2022-09-26T06:48:24.495Z,69.10
2022-09-26T06:50:43.815Z,67.80
2022-09-26T06:52:48.217Z,67.10
2022-09-26T06:54:52.510Z,67.30
2022-09-26T06:56:56.949Z,68.10
2022-09-26T06:59:01.171Z,67.30
2022-09-26T07:01:12.016Z,67.00
2022-09-26T07:03:20.371Z,66.20
2022-09-26T07:05:33.442Z,66.10
2022-09-26T07:07:45.584Z,65.00
2022-09-26T07:09:58.944Z,64.30
2022-09-26T07:12:16.115Z,63.80
2022-09-26T07:14:21.311Z,64.50
2022-09-26T07:16:31.845Z,63.40
2022-09-26T07:18:58.353Z,61.60
2022-09-26T07:21:21.312Z,62.30
2022-09-26T07:23:45.739Z,60.90
2022-09-26T07:25:50.920Z,62.10
2022-09-26T07:27:55.718Z,61.80
2022-09-26T07:30:11.022Z,60.80
2022-09-26T07:32:26.006Z,60.50
2022-09-26T07:34:50.234Z,59.50
2022-09-26T07:36:55.117Z,59.30
2022-09-26T07:39:01.240Z,59.50
2022-09-26T07:41:10.904Z,58.70
2022-09-26T07:43:20.015Z,59.00
2022-09-26T07:45:41.428Z,58.40
2022-09-26T07:48:02.972Z,58.10
2022-09-26T07:50:28.801Z,57.80
2022-09-26T07:52:57.186Z,57.10
2022-09-26T07:55:01.295Z,58.00
2022-09-26T07:57:22.317Z,56.30
2022-09-26T07:59:50.522Z,55.00
2022-09-26T08:02:24.180Z,55.70
2022-09-26T08:04:28.921Z,55.40
2022-09-26T08:06:36.844Z,55.30
2022-09-26T08:08:41.452Z,54.90
2022-09-26T08:11:05.645Z,53.80
2022-09-26T08:13:31.877Z,54.90
2022-09-26T08:15:55.218Z,53.60
2022-09-26T08:18:06.347Z,53.70
2022-09-26T08:20:11.345Z,53.80
2022-09-26T08:22:16.876Z,53.60
2022-09-26T08:24:21.446Z,54.30
2022-09-26T08:26:45.787Z,53.50
2022-09-26T08:29:06.463Z,53.80
2022-09-26T08:31:11.642Z,51.70
2022-09-26T08:33:19.038Z,52.60
2022-09-26T08:35:23.601Z,53.70
2022-09-26T08:37:56.520Z,53.60
2022-09-26T08:40:33.969Z,54.30
2022-09-26T08:43:07.451Z,53.20
2022-09-26T08:45:56.427Z,53.10
2022-09-26T08:48:37.067Z,53.60
2022-09-26T08:50:57.417Z,52.70
2022-09-26T08:53:07.758Z,53.60
2022-09-26T08:55:22.247Z,51.80
2022-09-26T08:57:35.384Z,52.40
2022-09-26T08:59:43.579Z,52.20
2022-09-26T09:01:53.144Z,52.60
2022-09-26T09:04:20.605Z,51.30
2022-09-26T09:06:28.319Z,51.40
2022-09-26T09:08:39.276Z,51.30
2022-09-26T09:11:17.676Z,52.20
2022-09-26T09:13:47.963Z,52.20
2022-09-26T09:16:23.932Z,51.80
2022-09-26T09:18:57.266Z,51.40
2022-09-26T09:21:34.273Z,51.40
2022-09-26T09:24:19.029Z,51.30
2022-09-26T09:29:18.982Z,51.20
2022-09-26T09:31:44.455Z,50.90
2022-09-26T09:34:14.437Z,51.40
2022-09-26T09:36:41.823Z,51.40
2022-09-26T09:39:09.792Z,51.10
2022-09-26T09:41:46.007Z,51.40
2022-09-26T09:43:53.158Z,50.90
2022-09-26T09:46:03.396Z,51.30
2022-09-26T09:48:13.232Z,51.60
2022-09-26T09:50:27.420Z,51.10
2022-09-26T09:52:46.161Z,51.30
2022-09-26T09:55:04.039Z,52.40
2022-09-26T09:57:25.200Z,52.10
2022-09-26T10:00:02.997Z,51.90
2022-09-26T10:02:28.747Z,51.90
2022-09-26T10:04:44.225Z,52.00
2022-09-26T10:06:51.158Z,51.70
2022-09-26T10:09:00.540Z,51.70
2022-09-26T10:11:51.814Z,50.60
2022-09-26T10:14:20.477Z,50.50
2022-09-26T10:17:14.875Z,51.60
2022-09-26T10:19:37.515Z,51.20
2022-09-26T10:21:44.613Z,52.10
2022-09-26T10:23:51.090Z,50.80
2022-09-26T10:26:31.150Z,50.30
2022-09-26T10:28:50.242Z,51.40
2022-09-26T10:31:00.428Z,53.30
2022-09-26T10:33:05.759Z,52.20
2022-09-26T10:35:30.470Z,51.40
2022-09-26T10:37:39.942Z,51.40
2022-09-26T10:40:12.656Z,51.20
2022-09-26T10:42:20.332Z,52.20
2022-09-26T10:44:30.282Z,52.60
2022-09-26T10:46:46.729Z,52.80
2022-09-26T10:49:36.299Z,53.60
2022-09-26T10:52:05.564Z,54.10
2022-09-26T10:54:14.102Z,53.80
2022-09-26T10:56:26.016Z,54.20
2022-09-26T10:58:31.104Z,53.90
2022-09-26T11:00:45.160Z,53.60
2022-09-26T11:02:54.481Z,53.70
2022-09-26T11:05:19.427Z,54.00
2022-09-26T11:07:52.293Z,54.70
2022-09-26T11:10:15.030Z,54.50
2022-09-26T11:12:30.227Z,54.90
2022-09-26T11:14:46.413Z,54.90
2022-09-26T11:16:56.930Z,55.10
2022-09-26T11:19:05.494Z,55.50
2022-09-26T11:21:28.847Z,55.60
2022-09-26T11:23:40.662Z,55.80
2022-09-26T11:25:58.169Z,55.30
2022-09-26T11:28:07.852Z,55.40
2022-09-26T11:30:48.297Z,55.50
2022-09-26T11:33:01.042Z,55.60
2022-09-26T11:35:34.863Z,55.50
2022-09-26T11:38:03.583Z,56.30
2022-09-26T11:40:32.296Z,57.20
2022-09-26T11:42:53.027Z,56.50
2022-09-26T11:44:59.817Z,56.40
2022-09-26T11:47:55.760Z,56.70
2022-09-26T11:50:35.635Z,56.60
2022-09-26T11:52:58.829Z,56.70
2022-09-26T11:55:16.331Z,57.50
2022-09-26T11:57:35.981Z,56.60
2022-09-26T12:00:07.582Z,56.40
2022-09-26T12:02:41.245Z,56.60
2022-09-26T12:05:04.381Z,55.90
2022-09-26T12:07:17.619Z,56.10
2022-09-26T12:09:36.195Z,56.80
2022-09-26T12:11:49.276Z,57.30
2022-09-26T12:14:01.836Z,56.50
2022-09-26T12:16:14.762Z,57.10
2022-09-26T12:18:29.435Z,58.20
2022-09-26T12:20:39.544Z,57.80
2022-09-26T12:22:52.303Z,57.50
2022-09-26T12:25:05.013Z,57.70
2022-09-26T12:27:18.655Z,57.60
2022-09-26T12:29:34.334Z,57.40
2022-09-26T12:31:55.015Z,57.80
2022-09-26T12:34:25.116Z,58.20
2022-09-26T12:36:47.597Z,57.60
2022-09-26T12:39:17.268Z,58.00
2022-09-26T12:41:51.940Z,58.00
2022-09-26T12:44:22.873Z,58.10
2022-09-26T12:46:53.535Z,57.40
2022-09-26T12:49:14.278Z,57.70
2022-09-26T12:51:28.779Z,57.70
2022-09-26T12:53:45.741Z,57.30
2022-09-26T12:56:02.587Z,57.00
2022-09-26T12:58:26.051Z,56.80
2022-09-26T13:00:40.884Z,57.40
2022-09-26T13:03:20.049Z,58.20
2022-09-26T13:05:39.693Z,56.90
2022-09-26T13:07:53.643Z,57.20
2022-09-26T13:10:18.954Z,57.10
2022-09-26T13:12:40.671Z,57.40
2022-09-26T13:15:02.159Z,57.70
2022-09-26T13:17:14.227Z,57.90
2022-09-26T13:19:25.785Z,58.50
2022-09-26T13:21:44.253Z,58.20
2022-09-26T13:23:55.332Z,57.90
2022-09-26T13:26:04.630Z,58.40
2022-09-26T13:28:17.787Z,58.50
2022-09-26T13:30:26.396Z,58.40
2022-09-26T13:32:36.798Z,57.80
2022-09-26T13:34:46.059Z,58.10
2022-09-26T13:36:51.423Z,58.40
2022-09-26T13:39:03.417Z,59.00
2022-09-26T13:41:36.806Z,58.30
2022-09-26T13:43:56.035Z,57.80
2022-09-26T13:46:06.242Z,57.70
2022-09-26T13:48:15.209Z,57.30
2022-09-26T13:50:25.674Z,57.20
2022-09-26T13:52:43.273Z,57.20
2022-09-26T13:55:00.764Z,57.20
2022-09-26T13:57:31.982Z,58.10
2022-09-26T13:59:54.430Z,57.30
2022-09-26T14:02:25.086Z,57.90
2022-09-26T14:04:35.233Z,57.50
2022-09-26T14:06:39.603Z,57.90
2022-09-26T14:09:24.408Z,58.30
2022-09-26T14:11:46.506Z,57.80
2022-09-26T14:14:25.240Z,57.70
2022-09-26T14:16:38.419Z,57.40
2022-09-26T14:18:57.697Z,57.90
2022-09-26T14:21:13.886Z,57.90
2022-09-26T14:23:36.863Z,57.80
2022-09-26T14:25:58.138Z,58.10
2022-09-26T14:28:17.298Z,58.80
2022-09-26T14:30:28.357Z,58.50
2022-09-26T14:32:40.566Z,58.20
2022-09-26T14:34:46.628Z,58.30
2022-09-26T14:36:52.975Z,58.90
2022-09-26T14:38:58.094Z,59.10
2022-09-26T14:41:02.508Z,58.50
2022-09-26T14:43:14.420Z,59.00
2022-09-26T14:45:26.103Z,58.80
2022-09-26T14:47:40.494Z,58.40
2022-09-26T14:49:58.727Z,57.80
2022-09-26T14:52:08.938Z,58.50
2022-09-26T14:54:24.326Z,58.90
2022-09-26T14:56:40.996Z,59.20
2022-09-26T14:58:51.387Z,60.40
2022-09-26T15:00:56.858Z,61.10
2022-09-26T15:03:05.100Z,61.10
2022-09-26T15:05:24.055Z,60.90
2022-09-26T15:07:31.836Z,60.90
2022-09-26T15:09:43.758Z,61.30
2022-09-26T15:11:50.410Z,61.00
2022-09-26T15:13:56.535Z,61.00
2022-09-26T15:16:15.248Z,61.50
2022-09-26T15:18:30.992Z,61.50
2022-09-26T15:20:41.873Z,61.10
2022-09-26T15:22:46.934Z,61.90
2022-09-26T15:24:54.806Z,62.40
2022-09-26T15:27:02.038Z,63.10
2022-09-26T15:29:12.457Z,63.70
2022-09-26T15:31:25.341Z,64.00
2022-09-26T15:33:29.766Z,64.30
2022-09-26T15:35:36.914Z,64.90
2022-09-26T15:37:42.307Z,65.60
2022-09-26T15:39:46.925Z,66.50
2022-09-26T15:42:08.911Z,66.50
2022-09-26T15:44:24.275Z,66.30
2022-09-26T15:46:29.320Z,66.70
2022-09-26T15:48:34.152Z,67.10
2022-09-26T15:50:44.023Z,67.40
2022-09-26T15:52:55.328Z,67.60
2022-09-26T15:55:02.574Z,67.90
2022-09-26T15:57:10.297Z,68.00
2022-09-26T15:59:22.201Z,68.40
2022-09-26T16:01:30.195Z,68.90
2022-09-26T16:03:48.224Z,69.90
2022-09-26T16:05:54.639Z,69.60
2022-09-26T16:07:58.929Z,70.20
2022-09-26T16:10:05.708Z,70.50
2022-09-26T16:12:20.314Z,71.20
2022-09-26T16:14:30.177Z,72.10
2022-09-26T16:16:36.274Z,72.60
2022-09-26T16:18:47.943Z,73.10
2022-09-26T16:21:13.668Z,73.50
2022-09-26T16:23:27.644Z,74.10
2022-09-26T16:25:52.804Z,74.40
2022-09-26T16:28:17.930Z,75.80
2022-09-26T16:30:53.309Z,76.10
2022-09-26T16:33:15.423Z,76.70
2022-09-26T16:35:26.021Z,77.40
2022-09-26T16:37:36.872Z,77.70
2022-09-26T16:39:41.696Z,77.90
2022-09-26T16:42:01.765Z,78.80
2022-09-26T16:44:10.649Z,79.10
2022-09-26T16:46:18.595Z,79.30
2022-09-26T16:48:40.416Z,80.10
2022-09-26T16:50:44.929Z,80.10
2022-09-26T16:52:50.895Z,80.60
2022-09-26T16:54:56.257Z,80.40
2022-09-26T16:57:00.982Z,80.70
2022-09-26T16:59:13.265Z,80.90
2022-09-26T17:01:35.948Z,81.10
2022-09-26T17:03:41.224Z,81.70
2022-09-26T17:05:45.731Z,81.50
2022-09-26T17:07:52.295Z,81.80
2022-09-26T17:09:57.030Z,82.80
2022-09-26T17:12:05.391Z,82.60
2022-09-26T17:14:16.468Z,83.00
2022-09-26T17:16:22.235Z,83.50
2022-09-26T17:18:29.901Z,83.60
2022-09-26T17:20:34.386Z,83.60
2022-09-26T17:22:42.972Z,83.80
2022-09-26T17:24:49.788Z,84.00
2022-09-26T17:26:56.586Z,84.60
2022-09-26T17:29:01.159Z,84.60
2022-09-26T17:31:07.839Z,84.30
2022-09-26T17:33:13.404Z,84.60
2022-09-26T17:35:25.989Z,84.60
2022-09-26T17:37:31.051Z,83.80
2022-09-26T17:39:39.355Z,84.80
2022-09-26T17:41:45.764Z,84.60
2022-09-26T17:44:01.136Z,85.20
2022-09-26T17:46:06.439Z,85.30
2022-09-26T17:48:15.564Z,86.20
2022-09-26T17:50:25.301Z,86.10
2022-09-26T17:52:32.480Z,86.70
2022-09-26T17:54:42.736Z,87.20
2022-09-26T17:56:49.128Z,87.00
2022-09-26T17:58:54.535Z,87.60
2022-09-26T18:01:01.826Z,88.00
2022-09-26T18:03:09.113Z,87.60
2022-09-26T18:05:21.731Z,86.90
2022-09-26T18:07:29.986Z,88.20
2022-09-26T18:09:36.416Z,88.20
2022-09-26T18:11:42.793Z,88.90
2022-09-26T18:13:54.725Z,89.20
2022-09-26T18:16:00.206Z,89.20
2022-09-26T18:18:04.937Z,88.80
2022-09-26T18:20:10.002Z,89.10
2022-09-26T18:22:19.029Z,89.10
2022-09-26T18:24:28.005Z,89.40
2022-09-26T18:26:34.537Z,89.50
2022-09-26T18:28:40.115Z,89.80
2022-09-26T18:30:48.876Z,89.80
2022-09-26T18:32:56.593Z,89.90
2022-09-26T18:35:01.575Z,89.60
2022-09-26T18:37:07.830Z,90.00
2022-09-26T18:39:12.591Z,89.40
2022-09-26T18:41:18.920Z,90.00
2022-09-26T18:43:25.270Z,89.80
2022-09-26T18:45:36.083Z,90.10
2022-09-26T18:47:44.800Z,89.30
2022-09-26T18:49:49.409Z,89.80
2022-09-26T18:51:54.144Z,89.70
2022-09-26T18:53:58.558Z,89.70
2022-09-26T18:56:38.011Z,89.80
2022-09-26T18:58:44.163Z,89.70
2022-09-26T19:00:56.890Z,89.30
2022-09-26T19:03:09.030Z,88.90
2022-09-26T19:05:18.834Z,88.40
2022-09-26T19:07:26.081Z,88.20
2022-09-26T19:09:34.439Z,86.90
2022-09-26T19:11:42.668Z,86.80
2022-09-26T19:13:55.495Z,87.80
2022-09-26T19:16:00.475Z,88.80
2022-09-26T19:18:10.426Z,88.00
2022-09-26T19:20:23.029Z,87.90
2022-09-26T19:22:27.976Z,87.10
2022-09-26T19:24:35.700Z,87.00
2022-09-26T19:26:43.763Z,87.00
2022-09-26T19:28:51.271Z,86.80
2022-09-26T19:30:57.080Z,86.80
2022-09-26T19:33:02.183Z,86.90
2022-09-26T19:35:14.930Z,87.10
2022-09-26T19:37:23.143Z,87.10
2022-09-26T19:39:29.916Z,86.90
2022-09-26T19:41:34.638Z,87.00
2022-09-26T19:43:39.303Z,87.00
2022-09-26T19:45:44.188Z,86.80
2022-09-26T19:47:51.261Z,87.60
2022-09-26T19:49:55.748Z,88.50
2022-09-26T19:52:02.955Z,88.90
2022-09-26T19:54:07.943Z,89.70
2022-09-26T19:56:12.625Z,90.00
2022-09-26T19:58:19.546Z,90.00
2022-09-26T20:00:24.242Z,89.80
2022-09-26T20:02:33.367Z,89.20
2022-09-26T20:04:38.230Z,89.50
2022-09-26T20:06:42.916Z,89.10
2022-09-26T20:08:49.522Z,88.70
2022-09-26T20:10:54.670Z,88.20
2022-09-26T20:12:59.115Z,88.00
2022-09-26T20:15:03.595Z,88.00
2022-09-26T20:17:17.959Z,88.00
2022-09-26T20:19:29.660Z,88.20
2022-09-26T20:21:34.740Z,87.80
2022-09-26T20:23:39.499Z,88.40
2022-09-26T20:25:46.617Z,88.80
2022-09-26T20:27:51.044Z,90.00
2022-09-26T20:30:13.422Z,90.30
2022-09-26T20:32:19.317Z,90.50
2022-09-26T20:34:24.171Z,90.90
2022-09-26T20:36:32.228Z,90.90
2022-09-26T20:38:43.420Z,90.50
2022-09-26T20:40:50.734Z,90.60
2022-09-26T20:43:00.343Z,90.50
2022-09-26T20:45:05.614Z,90.90
2022-09-26T20:47:14.620Z,91.20
2022-09-26T20:49:22.947Z,91.00
2022-09-26T20:51:30.146Z,90.90
2022-09-26T20:53:34.860Z,91.20
2022-09-26T20:55:43.821Z,90.80
2022-09-26T20:57:50.966Z,90.90
2022-09-26T21:00:04.617Z,90.60
2022-09-26T21:02:28.389Z,90.80
2022-09-26T21:04:33.982Z,90.50
2022-09-26T21:06:38.504Z,90.70
2022-09-26T21:08:43.547Z,90.70
2022-09-26T21:10:47.970Z,90.70
2022-09-26T21:12:54.888Z,90.70
2022-09-26T21:14:59.693Z,90.90
2022-09-26T21:17:04.363Z,91.10
2022-09-26T21:19:13.481Z,91.10
2022-09-26T21:21:23.238Z,91.20
2022-09-26T21:23:38.070Z,91.20
2022-09-26T21:25:43.441Z,91.40
2022-09-26T21:27:48.535Z,91.50
2022-09-26T21:29:54.450Z,91.60
2022-09-26T21:32:03.055Z,91.30
2022-09-26T21:34:19.440Z,91.60
2022-09-26T21:36:25.071Z,91.90
2022-09-26T21:38:29.644Z,92.20
2022-09-26T21:40:40.623Z,92.00
2022-09-26T21:42:49.802Z,91.90
2022-09-26T21:45:00.382Z,91.70
2022-09-26T21:47:05.351Z,92.80
2022-09-26T21:49:09.842Z,93.20
2022-09-26T21:51:14.593Z,93.40
2022-09-26T21:53:22.406Z,92.30
2022-09-26T21:55:31.350Z,92.20
2022-09-26T21:57:41.462Z,92.60
2022-09-26T21:59:47.689Z,93.50
2022-09-26T22:01:53.741Z,94.00
2022-09-26T22:03:58.602Z,93.50
2022-09-26T22:06:07.349Z,92.90
2022-09-26T22:08:12.306Z,92.80
2022-09-26T22:10:17.345Z,92.90
2022-09-26T22:12:22.407Z,93.00
2022-09-26T22:14:28.707Z,92.80
2022-09-26T22:16:33.326Z,93.20
2022-09-26T22:18:40.355Z,93.60
2022-09-26T22:20:44.992Z,93.80
2022-09-26T22:22:49.594Z,93.70
2022-09-26T22:24:54.861Z,93.70
2022-09-26T22:26:59.391Z,93.80
2022-09-26T22:29:03.786Z,94.00
2022-09-26T22:31:08.549Z,93.90
2022-09-26T22:33:14.229Z,94.60
2022-09-26T22:35:20.170Z,94.90
2022-09-26T22:37:24.964Z,95.30
2022-09-26T22:39:29.329Z,95.50
2022-09-26T22:41:34.150Z,95.40
2022-09-26T22:43:38.527Z,95.30
2022-09-26T22:45:43.175Z,95.40
2022-09-26T22:47:47.680Z,95.40
2022-09-26T22:49:52.217Z,95.40
2022-09-26T22:51:58.291Z,95.40
2022-09-26T22:54:03.073Z,95.40
2022-09-26T22:56:09.230Z,95.60
2022-09-26T22:58:13.801Z,95.60
2022-09-26T23:00:18.735Z,95.50
2022-09-26T23:02:23.150Z,96.00
2022-09-26T23:04:47.006Z,95.90
2022-09-26T23:06:51.579Z,95.80
2022-09-26T23:08:58.226Z,95.60
2022-09-26T23:11:03.445Z,95.90
2022-09-26T23:13:07.908Z,95.80
2022-09-26T23:15:12.954Z,95.90
2022-09-26T23:17:18.233Z,95.90
2022-09-26T23:19:22.831Z,95.90
2022-09-26T23:21:29.315Z,95.90
2022-09-26T23:23:34.011Z,95.90
2022-09-26T23:25:49.432Z,95.90
2022-09-26T23:27:53.894Z,95.90
2022-09-26T23:29:58.570Z,96.20
2022-09-26T23:32:03.147Z,96.30
2022-09-26T23:34:08.200Z,96.50
2022-09-26T23:36:13.297Z,96.70
2022-09-26T23:38:18.351Z,96.80
2022-09-26T23:40:26.505Z,97.00
2022-09-26T23:42:32.569Z,96.80
2022-09-26T23:44:37.151Z,96.80
2022-09-26T23:46:41.743Z,96.60
2022-09-26T23:48:46.253Z,96.60
2022-09-26T23:50:50.774Z,96.80
2022-09-26T23:52:55.285Z,96.60
2022-09-26T23:54:59.683Z,96.50
2022-09-26T23:57:04.246Z,96.90
2022-09-26T23:59:10.402Z,97.20
